Huegely, Illinois
Current Conditions -  °F | °C
As of 8:15 AM on Wednesday 26 Nov 2014 (Local Time) from KENL Reporting Station
Clear Clear  
Wind Chill: 21°   Ceiling: Unl
Heat Index: 28°   Visibility: 7mi
Dew Point: 25°   Wind: 7mph
Humidity: 86%   Direction: 120°ESE
Pressure: 30.11"   Gusts: NA
Location:  38.4505°N, 89.3137°W
Report Text: KENL 261415Z AUTO 12006KT 7SM CLR M02/M04 A3011 RMK AO2 T10201041
Loading
Personal Weather Stations






























Interactive Weather Map New forecast layout! Learn more

10-Day Weather Forecast

Advertisements
Track Severe Weather on mobile